sensor_id;sensor_type;location;lat;lon;timestamp;P1;durP1;ratioP1;P2;durP2;ratioP2
19869;SDS011;10097;50.862;4.696;2022-07-30T00:02:06;18.45;;;7.20;;
19869;SDS011;10097;50.862;4.696;2022-07-30T00:04:31;15.07;;;6.40;;
19869;SDS011;10097;50.862;4.696;2022-07-30T00:06:58;15.82;;;6.10;;
19869;SDS011;10097;50.862;4.696;2022-07-30T00:09:24;15.65;;;6.50;;
19869;SDS011;10097;50.862;4.696;2022-07-30T00:11:49;16.75;;;6.32;;
19869;SDS011;10097;50.862;4.696;2022-07-30T00:14:15;16.23;;;6.40;;
19869;SDS011;10097;50.862;4.696;2022-07-30T00:16:41;15.30;;;6.78;;
19869;SDS011;10097;50.862;4.696;2022-07-30T00:19:06;13.77;;;5.63;;
19869;SDS011;10097;50.862;4.696;2022-07-30T00:21:32;12.30;;;5.68;;
19869;SDS011;10097;50.862;4.696;2022-07-30T00:23:58;13.15;;;5.38;;
19869;SDS011;10097;50.862;4.696;2022-07-30T00:26:23;13.68;;;5.03;;
19869;SDS011;10097;50.862;4.696;2022-07-30T00:28:49;12.55;;;4.80;;
19869;SDS011;10097;50.862;4.696;2022-07-30T00:31:15;11.65;;;4.75;;
19869;SDS011;10097;50.862;4.696;2022-07-30T00:33:40;16.85;;;4.82;;
19869;SDS011;10097;50.862;4.696;2022-07-30T00:36:06;15.52;;;5.30;;
19869;SDS011;10097;50.862;4.696;2022-07-30T00:38:32;10.65;;;4.40;;
19869;SDS011;10097;50.862;4.696;2022-07-30T00:40:57;10.85;;;4.18;;
19869;SDS011;10097;50.862;4.696;2022-07-30T00:43:23;10.95;;;4.80;;
19869;SDS011;10097;50.862;4.696;2022-07-30T00:45:49;13.45;;;5.63;;
19869;SDS011;10097;50.862;4.696;2022-07-30T00:48:14;10.50;;;5.05;;
19869;SDS011;10097;50.862;4.696;2022-07-30T00:50:41;15.63;;;5.28;;
19869;SDS011;10097;50.862;4.696;2022-07-30T00:53:07;12.40;;;5.78;;
19869;SDS011;10097;50.862;4.696;2022-07-30T00:55:33;13.85;;;6.03;;
19869;SDS011;10097;50.862;4.696;2022-07-30T00:57:59;17.63;;;8.07;;
19869;SDS011;10097;50.862;4.696;2022-07-30T01:00:25;20.45;;;8.18;;
19869;SDS011;10097;50.862;4.696;2022-07-30T01:02:52;18.08;;;8.80;;
19869;SDS011;10097;50.862;4.696;2022-07-30T01:05:18;20.80;;;9.43;;
19869;SDS011;10097;50.862;4.696;2022-07-30T01:07:44;18.60;;;9.30;;
19869;SDS011;10097;50.862;4.696;2022-07-30T01:10:14;21.73;;;10.90;;
19869;SDS011;10097;50.862;4.696;2022-07-30T01:12:40;20.73;;;9.32;;
19869;SDS011;10097;50.862;4.696;2022-07-30T01:15:07;19.73;;;9.68;;
19869;SDS011;10097;50.862;4.696;2022-07-30T01:17:34;20.50;;;9.88;;
19869;SDS011;10097;50.862;4.696;2022-07-30T01:20:16;20.30;;;9.50;;
19869;SDS011;10097;50.862;4.696;2022-07-30T01:28:03;22.55;;;10.27;;
19869;SDS011;10097;50.862;4.696;2022-07-30T01:30:34;16.77;;;8.70;;
19869;SDS011;10097;50.862;4.696;2022-07-30T01:33:03;18.73;;;11.00;;
19869;SDS011;10097;50.862;4.696;2022-07-30T01:35:30;23.10;;;10.95;;
19869;SDS011;10097;50.862;4.696;2022-07-30T01:37:58;23.17;;;11.15;;
19869;SDS011;10097;50.862;4.696;2022-07-30T01:40:26;22.17;;;10.98;;
19869;SDS011;10097;50.862;4.696;2022-07-30T01:42:52;22.33;;;11.35;;
19869;SDS011;10097;50.862;4.696;2022-07-30T01:45:25;23.52;;;11.20;;
19869;SDS011;10097;50.862;4.696;2022-07-30T01:47:54;27.27;;;12.75;;
19869;SDS011;10097;50.862;4.696;2022-07-30T01:50:22;23.58;;;11.30;;
19869;SDS011;10097;50.862;4.696;2022-07-30T01:52:49;23.83;;;11.13;;
19869;SDS011;10097;50.862;4.696;2022-07-30T01:55:22;22.15;;;11.65;;
19869;SDS011;10097;50.862;4.696;2022-07-30T01:57:50;22.98;;;11.35;;
19869;SDS011;10097;50.862;4.696;2022-07-30T02:00:18;22.80;;;11.75;;
19869;SDS011;10097;50.862;4.696;2022-07-30T02:02:44;25.75;;;12.00;;
19869;SDS011;10097;50.862;4.696;2022-07-30T02:05:10;19.48;;;10.23;;
19869;SDS011;10097;50.862;4.696;2022-07-30T02:07:40;27.40;;;11.27;;
19869;SDS011;10097;50.862;4.696;2022-07-30T02:12:50;21.60;;;11.05;;
19869;SDS011;10097;50.862;4.696;2022-07-30T02:18:09;23.00;;;12.30;;
19869;SDS011;10097;50.862;4.696;2022-07-30T02:20:43;23.80;;;11.70;;
19869;SDS011;10097;50.862;4.696;2022-07-30T02:23:13;20.50;;;10.93;;
19869;SDS011;10097;50.862;4.696;2022-07-30T02:25:42;24.80;;;10.65;;
19869;SDS011;10097;50.862;4.696;2022-07-30T02:28:16;21.00;;;11.53;;
19869;SDS011;10097;50.862;4.696;2022-07-30T02:30:51;20.73;;;11.27;;
19869;SDS011;10097;50.862;4.696;2022-07-30T02:33:22;27.58;;;11.43;;
19869;SDS011;10097;50.862;4.696;2022-07-30T02:35:52;21.23;;;10.32;;
19869;SDS011;10097;50.862;4.696;2022-07-30T02:38:20;19.80;;;10.98;;
19869;SDS011;10097;50.862;4.696;2022-07-30T02:40:49;22.90;;;11.48;;
19869;SDS011;10097;50.862;4.696;2022-07-30T02:43:17;20.83;;;10.87;;
19869;SDS011;10097;50.862;4.696;2022-07-30T02:45:45;21.13;;;10.93;;
19869;SDS011;10097;50.862;4.696;2022-07-30T02:48:12;18.43;;;10.13;;
19869;SDS011;10097;50.862;4.696;2022-07-30T02:50:39;22.07;;;10.53;;
19869;SDS011;10097;50.862;4.696;2022-07-30T02:53:06;20.87;;;11.53;;
19869;SDS011;10097;50.862;4.696;2022-07-30T02:55:34;20.40;;;10.93;;
19869;SDS011;10097;50.862;4.696;2022-07-30T02:58:03;18.53;;;11.00;;
19869;SDS011;10097;50.862;4.696;2022-07-30T03:00:29;24.00;;;11.57;;
19869;SDS011;10097;50.862;4.696;2022-07-30T03:02:57;17.27;;;10.70;;
19869;SDS011;10097;50.862;4.696;2022-07-30T03:05:26;19.40;;;10.67;;
19869;SDS011;10097;50.862;4.696;2022-07-30T03:07:56;24.07;;;11.90;;
19869;SDS011;10097;50.862;4.696;2022-07-30T03:10:24;24.63;;;12.60;;
19869;SDS011;10097;50.862;4.696;2022-07-30T03:12:51;23.40;;;11.27;;
19869;SDS011;10097;50.862;4.696;2022-07-30T03:15:18;21.67;;;10.80;;
19869;SDS011;10097;50.862;4.696;2022-07-30T03:17:44;19.13;;;9.93;;
19869;SDS011;10097;50.862;4.696;2022-07-30T03:20:16;18.80;;;9.73;;
19869;SDS011;10097;50.862;4.696;2022-07-30T03:22:45;19.93;;;9.40;;
19869;SDS011;10097;50.862;4.696;2022-07-30T03:25:15;19.80;;;9.87;;
19869;SDS011;10097;50.862;4.696;2022-07-30T03:27:46;21.40;;;10.17;;
19869;SDS011;10097;50.862;4.696;2022-07-30T03:30:13;21.50;;;9.80;;
19869;SDS011;10097;50.862;4.696;2022-07-30T03:32:40;21.93;;;9.83;;
19869;SDS011;10097;50.862;4.696;2022-07-30T03:35:07;15.77;;;9.33;;
19869;SDS011;10097;50.862;4.696;2022-07-30T03:37:34;16.70;;;9.13;;
19869;SDS011;10097;50.862;4.696;2022-07-30T03:40:03;17.77;;;9.53;;
19869;SDS011;10097;50.862;4.696;2022-07-30T03:42:31;17.70;;;9.03;;
19869;SDS011;10097;50.862;4.696;2022-07-30T03:44:59;17.07;;;9.40;;
19869;SDS011;10097;50.862;4.696;2022-07-30T03:47:27;21.20;;;10.43;;
19869;SDS011;10097;50.862;4.696;2022-07-30T03:49:57;16.47;;;9.73;;
19869;SDS011;10097;50.862;4.696;2022-07-30T03:52:23;17.80;;;9.53;;
19869;SDS011;10097;50.862;4.696;2022-07-30T03:54:50;19.60;;;9.43;;
19869;SDS011;10097;50.862;4.696;2022-07-30T03:57:17;18.43;;;10.07;;
19869;SDS011;10097;50.862;4.696;2022-07-30T03:59:43;17.07;;;8.70;;
19869;SDS011;10097;50.862;4.696;2022-07-30T04:02:09;18.60;;;8.70;;
19869;SDS011;10097;50.862;4.696;2022-07-30T04:04:34;22.90;;;10.17;;
19869;SDS011;10097;50.862;4.696;2022-07-30T04:07:00;15.00;;;8.60;;
19869;SDS011;10097;50.862;4.696;2022-07-30T04:09:26;17.17;;;10.10;;
19869;SDS011;10097;50.862;4.696;2022-07-30T04:11:51;17.40;;;9.73;;
19869;SDS011;10097;50.862;4.696;2022-07-30T04:14:17;20.30;;;9.80;;
19869;SDS011;10097;50.862;4.696;2022-07-30T04:16:45;20.27;;;10.03;;
19869;SDS011;10097;50.862;4.696;2022-07-30T04:19:15;16.87;;;9.00;;
19869;SDS011;10097;50.862;4.696;2022-07-30T04:21:47;22.27;;;11.37;;
19869;SDS011;10097;50.862;4.696;2022-07-30T04:24:15;24.03;;;10.97;;
19869;SDS011;10097;50.862;4.696;2022-07-30T04:26:42;21.57;;;11.53;;
19869;SDS011;10097;50.862;4.696;2022-07-30T04:29:10;29.53;;;13.27;;
19869;SDS011;10097;50.862;4.696;2022-07-30T04:31:36;24.30;;;12.60;;
19869;SDS011;10097;50.862;4.696;2022-07-30T04:34:02;26.13;;;12.43;;
19869;SDS011;10097;50.862;4.696;2022-07-30T04:36:29;24.67;;;11.57;;
19869;SDS011;10097;50.862;4.696;2022-07-30T04:38:56;21.87;;;9.80;;
19869;SDS011;10097;50.862;4.696;2022-07-30T04:41:22;20.17;;;9.97;;
19869;SDS011;10097;50.862;4.696;2022-07-30T04:43:48;19.50;;;9.83;;
19869;SDS011;10097;50.862;4.696;2022-07-30T04:46:14;19.97;;;8.53;;
19869;SDS011;10097;50.862;4.696;2022-07-30T04:48:40;16.87;;;9.30;;
19869;SDS011;10097;50.862;4.696;2022-07-30T04:51:08;19.13;;;8.87;;
19869;SDS011;10097;50.862;4.696;2022-07-30T04:54:02;18.90;;;9.93;;
19869;SDS011;10097;50.862;4.696;2022-07-30T04:56:30;18.23;;;9.73;;
19869;SDS011;10097;50.862;4.696;2022-07-30T04:58:59;14.63;;;9.23;;
19869;SDS011;10097;50.862;4.696;2022-07-30T05:01:26;21.80;;;10.77;;
19869;SDS011;10097;50.862;4.696;2022-07-30T05:03:55;18.57;;;9.13;;
19869;SDS011;10097;50.862;4.696;2022-07-30T05:06:23;20.23;;;11.10;;
19869;SDS011;10097;50.862;4.696;2022-07-30T05:08:50;25.60;;;12.13;;
19869;SDS011;10097;50.862;4.696;2022-07-30T05:11:16;20.80;;;10.60;;
19869;SDS011;10097;50.862;4.696;2022-07-30T05:13:42;18.23;;;10.17;;
19869;SDS011;10097;50.862;4.696;2022-07-30T05:16:09;20.40;;;10.60;;
19869;SDS011;10097;50.862;4.696;2022-07-30T05:18:35;21.97;;;11.17;;
19869;SDS011;10097;50.862;4.696;2022-07-30T05:21:01;18.83;;;10.75;;
19869;SDS011;10097;50.862;4.696;2022-07-30T05:23:27;22.27;;;11.43;;
19869;SDS011;10097;50.862;4.696;2022-07-30T05:25:52;19.45;;;11.23;;
19869;SDS011;10097;50.862;4.696;2022-07-30T05:28:18;21.30;;;12.33;;
19869;SDS011;10097;50.862;4.696;2022-07-30T05:30:44;20.65;;;11.57;;
19869;SDS011;10097;50.862;4.696;2022-07-30T05:33:09;18.52;;;11.85;;
19869;SDS011;10097;50.862;4.696;2022-07-30T05:35:35;27.10;;;11.52;;
19869;SDS011;10097;50.862;4.696;2022-07-30T05:38:00;22.70;;;11.95;;
19869;SDS011;10097;50.862;4.696;2022-07-30T05:40:26;25.10;;;11.73;;
19869;SDS011;10097;50.862;4.696;2022-07-30T05:42:52;23.70;;;10.85;;
19869;SDS011;10097;50.862;4.696;2022-07-30T05:45:17;20.88;;;10.82;;
19869;SDS011;10097;50.862;4.696;2022-07-30T05:47:43;19.73;;;11.20;;
19869;SDS011;10097;50.862;4.696;2022-07-30T05:50:09;24.02;;;11.27;;
19869;SDS011;10097;50.862;4.696;2022-07-30T05:52:34;16.58;;;10.50;;
19869;SDS011;10097;50.862;4.696;2022-07-30T05:55:00;20.42;;;10.88;;
19869;SDS011;10097;50.862;4.696;2022-07-30T05:57:26;24.08;;;11.88;;
19869;SDS011;10097;50.862;4.696;2022-07-30T05:59:51;24.23;;;13.00;;
19869;SDS011;10097;50.862;4.696;2022-07-30T06:02:17;21.75;;;11.90;;
19869;SDS011;10097;50.862;4.696;2022-07-30T06:04:43;19.98;;;11.55;;
19869;SDS011;10097;50.862;4.696;2022-07-30T06:07:08;17.50;;;11.13;;
19869;SDS011;10097;50.862;4.696;2022-07-30T06:09:34;23.15;;;11.20;;
19869;SDS011;10097;50.862;4.696;2022-07-30T06:12:00;21.58;;;11.70;;
19869;SDS011;10097;50.862;4.696;2022-07-30T06:14:25;22.13;;;12.02;;
19869;SDS011;10097;50.862;4.696;2022-07-30T06:16:51;18.30;;;11.45;;
19869;SDS011;10097;50.862;4.696;2022-07-30T06:19:17;20.00;;;11.23;;
19869;SDS011;10097;50.862;4.696;2022-07-30T06:21:42;23.70;;;11.43;;
19869;SDS011;10097;50.862;4.696;2022-07-30T06:24:08;21.65;;;11.02;;
19869;SDS011;10097;50.862;4.696;2022-07-30T06:26:34;18.92;;;11.10;;
19869;SDS011;10097;50.862;4.696;2022-07-30T06:28:59;19.42;;;10.23;;
19869;SDS011;10097;50.862;4.696;2022-07-30T06:31:25;23.13;;;10.45;;
19869;SDS011;10097;50.862;4.696;2022-07-30T06:33:51;18.88;;;10.27;;
19869;SDS011;10097;50.862;4.696;2022-07-30T06:36:16;19.95;;;10.18;;
19869;SDS011;10097;50.862;4.696;2022-07-30T06:38:42;20.80;;;10.13;;
19869;SDS011;10097;50.862;4.696;2022-07-30T06:41:08;16.90;;;10.23;;
19869;SDS011;10097;50.862;4.696;2022-07-30T06:43:34;22.05;;;10.02;;
19869;SDS011;10097;50.862;4.696;2022-07-30T06:45:59;20.63;;;10.82;;
19869;SDS011;10097;50.862;4.696;2022-07-30T06:48:25;20.83;;;9.57;;
19869;SDS011;10097;50.862;4.696;2022-07-30T06:50:51;19.38;;;10.25;;
19869;SDS011;10097;50.862;4.696;2022-07-30T06:53:16;26.33;;;10.00;;
19869;SDS011;10097;50.862;4.696;2022-07-30T06:55:42;25.10;;;10.95;;
19869;SDS011;10097;50.862;4.696;2022-07-30T06:58:08;21.00;;;9.98;;
19869;SDS011;10097;50.862;4.696;2022-07-30T07:00:34;20.48;;;10.00;;
19869;SDS011;10097;50.862;4.696;2022-07-30T07:02:59;22.63;;;10.23;;
19869;SDS011;10097;50.862;4.696;2022-07-30T07:05:25;16.45;;;8.85;;
19869;SDS011;10097;50.862;4.696;2022-07-30T07:07:53;18.80;;;8.73;;
19869;SDS011;10097;50.862;4.696;2022-07-30T07:10:18;22.80;;;7.95;;
19869;SDS011;10097;50.862;4.696;2022-07-30T07:12:44;16.38;;;8.35;;
19869;SDS011;10097;50.862;4.696;2022-07-30T07:15:10;20.35;;;8.52;;
19869;SDS011;10097;50.862;4.696;2022-07-30T07:17:37;19.13;;;7.75;;
19869;SDS011;10097;50.862;4.696;2022-07-30T07:20:04;16.00;;;8.10;;
19869;SDS011;10097;50.862;4.696;2022-07-30T07:22:30;18.90;;;9.10;;
19869;SDS011;10097;50.862;4.696;2022-07-30T07:24:55;16.60;;;7.60;;
19869;SDS011;10097;50.862;4.696;2022-07-30T07:27:21;18.98;;;7.10;;
19869;SDS011;10097;50.862;4.696;2022-07-30T07:29:47;14.15;;;6.68;;
19869;SDS011;10097;50.862;4.696;2022-07-30T07:32:13;18.35;;;6.25;;
19869;SDS011;10097;50.862;4.696;2022-07-30T07:34:38;17.55;;;5.97;;
19869;SDS011;10097;50.862;4.696;2022-07-30T07:37:04;15.43;;;6.72;;
19869;SDS011;10097;50.862;4.696;2022-07-30T07:39:30;17.77;;;6.82;;
19869;SDS011;10097;50.862;4.696;2022-07-30T07:41:55;14.85;;;6.70;;
19869;SDS011;10097;50.862;4.696;2022-07-30T07:44:21;13.77;;;6.40;;
19869;SDS011;10097;50.862;4.696;2022-07-30T07:46:47;14.15;;;6.00;;
19869;SDS011;10097;50.862;4.696;2022-07-30T07:49:12;13.40;;;6.10;;
19869;SDS011;10097;50.862;4.696;2022-07-30T07:51:40;12.07;;;5.65;;
19869;SDS011;10097;50.862;4.696;2022-07-30T07:54:06;15.02;;;5.25;;
19869;SDS011;10097;50.862;4.696;2022-07-30T07:56:31;15.80;;;4.93;;
19869;SDS011;10097;50.862;4.696;2022-07-30T07:58:57;10.98;;;4.20;;
19869;SDS011;10097;50.862;4.696;2022-07-30T08:01:24;13.75;;;4.63;;
19869;SDS011;10097;50.862;4.696;2022-07-30T08:03:49;12.73;;;4.63;;
19869;SDS011;10097;50.862;4.696;2022-07-30T08:06:15;12.43;;;4.25;;
19869;SDS011;10097;50.862;4.696;2022-07-30T08:08:41;7.38;;;2.85;;
19869;SDS011;10097;50.862;4.696;2022-07-30T08:11:06;6.35;;;2.42;;
19869;SDS011;10097;50.862;4.696;2022-07-30T08:13:32;10.75;;;3.63;;
19869;SDS011;10097;50.862;4.696;2022-07-30T08:15:58;7.63;;;2.63;;
19869;SDS011;10097;50.862;4.696;2022-07-30T08:18:25;5.82;;;2.05;;
19869;SDS011;10097;50.862;4.696;2022-07-30T08:20:51;9.30;;;2.50;;
19869;SDS011;10097;50.862;4.696;2022-07-30T08:23:17;5.72;;;2.35;;
19869;SDS011;10097;50.862;4.696;2022-07-30T08:25:45;6.97;;;2.72;;
19869;SDS011;10097;50.862;4.696;2022-07-30T08:28:11;7.40;;;2.72;;
19869;SDS011;10097;50.862;4.696;2022-07-30T08:30:36;9.32;;;2.85;;
19869;SDS011;10097;50.862;4.696;2022-07-30T08:33:02;7.53;;;2.10;;
19869;SDS011;10097;50.862;4.696;2022-07-30T08:35:28;8.63;;;2.17;;
19869;SDS011;10097;50.862;4.696;2022-07-30T08:37:53;6.65;;;2.08;;
19869;SDS011;10097;50.862;4.696;2022-07-30T08:40:19;7.63;;;2.08;;
19869;SDS011;10097;50.862;4.696;2022-07-30T08:42:45;4.15;;;1.50;;
19869;SDS011;10097;50.862;4.696;2022-07-30T08:45:11;6.80;;;1.63;;
19869;SDS011;10097;50.862;4.696;2022-07-30T08:47:39;5.15;;;1.90;;
19869;SDS011;10097;50.862;4.696;2022-07-30T08:50:05;9.20;;;2.25;;
19869;SDS011;10097;50.862;4.696;2022-07-30T08:52:34;9.90;;;2.10;;
19869;SDS011;10097;50.862;4.696;2022-07-30T08:55:01;5.78;;;2.00;;
19869;SDS011;10097;50.862;4.696;2022-07-30T08:57:28;7.45;;;2.30;;
19869;SDS011;10097;50.862;4.696;2022-07-30T08:59:56;6.40;;;2.05;;
19869;SDS011;10097;50.862;4.696;2022-07-30T09:02:22;5.93;;;1.90;;
19869;SDS011;10097;50.862;4.696;2022-07-30T09:04:48;6.25;;;1.88;;
19869;SDS011;10097;50.862;4.696;2022-07-30T09:07:14;6.00;;;1.77;;
19869;SDS011;10097;50.862;4.696;2022-07-30T09:09:40;9.70;;;1.90;;
19869;SDS011;10097;50.862;4.696;2022-07-30T09:12:51;5.85;;;1.67;;
19869;SDS011;10097;50.862;4.696;2022-07-30T09:15:03;7.57;;;2.10;;
19869;SDS011;10097;50.862;4.696;2022-07-30T09:17:47;7.57;;;1.67;;
19869;SDS011;10097;50.862;4.696;2022-07-30T09:20:20;5.03;;;1.60;;
19869;SDS011;10097;50.862;4.696;2022-07-30T09:22:49;5.25;;;1.60;;
19869;SDS011;10097;50.862;4.696;2022-07-30T09:25:36;3.38;;;1.58;;
19869;SDS011;10097;50.862;4.696;2022-07-30T09:28:07;6.85;;;1.30;;
19869;SDS011;10097;50.862;4.696;2022-07-30T09:33:13;5.30;;;1.98;;
19869;SDS011;10097;50.862;4.696;2022-07-30T09:35:39;5.60;;;1.40;;
19869;SDS011;10097;50.862;4.696;2022-07-30T09:38:06;7.60;;;1.80;;
19869;SDS011;10097;50.862;4.696;2022-07-30T09:40:32;8.75;;;2.13;;
19869;SDS011;10097;50.862;4.696;2022-07-30T09:45:31;5.32;;;1.50;;
19869;SDS011;10097;50.862;4.696;2022-07-30T09:47:57;5.63;;;1.48;;
19869;SDS011;10097;50.862;4.696;2022-07-30T09:50:23;5.05;;;1.52;;
19869;SDS011;10097;50.862;4.696;2022-07-30T09:52:51;4.05;;;1.60;;
19869;SDS011;10097;50.862;4.696;2022-07-30T09:55:30;5.07;;;1.60;;
19869;SDS011;10097;50.862;4.696;2022-07-30T09:58:03;4.38;;;1.67;;
19869;SDS011;10097;50.862;4.696;2022-07-30T10:00:31;4.90;;;1.27;;
19869;SDS011;10097;50.862;4.696;2022-07-30T10:03:20;3.35;;;1.42;;
19869;SDS011;10097;50.862;4.696;2022-07-30T10:08:16;3.88;;;1.48;;
19869;SDS011;10097;50.862;4.696;2022-07-30T10:10:42;5.15;;;1.38;;
19869;SDS011;10097;50.862;4.696;2022-07-30T10:13:09;3.67;;;1.10;;
19869;SDS011;10097;50.862;4.696;2022-07-30T10:15:38;5.03;;;1.50;;
19869;SDS011;10097;50.862;4.696;2022-07-30T10:18:04;6.60;;;1.23;;
19869;SDS011;10097;50.862;4.696;2022-07-30T10:20:30;3.80;;;1.27;;
19869;SDS011;10097;50.862;4.696;2022-07-30T10:22:56;6.50;;;1.30;;
19869;SDS011;10097;50.862;4.696;2022-07-30T10:25:23;3.92;;;1.23;;
19869;SDS011;10097;50.862;4.696;2022-07-30T10:27:51;5.68;;;1.25;;
19869;SDS011;10097;50.862;4.696;2022-07-30T10:30:17;3.45;;;1.00;;
19869;SDS011;10097;50.862;4.696;2022-07-30T10:32:44;2.45;;;1.02;;
19869;SDS011;10097;50.862;4.696;2022-07-30T10:35:11;3.28;;;1.35;;
19869;SDS011;10097;50.862;4.696;2022-07-30T10:37:38;4.50;;;1.23;;
19869;SDS011;10097;50.862;4.696;2022-07-30T10:48:16;4.85;;;1.10;;
19869;SDS011;10097;50.862;4.696;2022-07-30T10:50:53;5.38;;;0.95;;
19869;SDS011;10097;50.862;4.696;2022-07-30T10:56:17;4.97;;;1.60;;
19869;SDS011;10097;50.862;4.696;2022-07-30T11:02:06;4.38;;;1.15;;
19869;SDS011;10097;50.862;4.696;2022-07-30T11:04:19;5.15;;;1.30;;
19869;SDS011;10097;50.862;4.696;2022-07-30T11:06:52;7.95;;;1.15;;
19869;SDS011;10097;50.862;4.696;2022-07-30T11:09:52;5.45;;;1.00;;
19869;SDS011;10097;50.862;4.696;2022-07-30T11:15:09;3.08;;;1.10;;
19869;SDS011;10097;50.862;4.696;2022-07-30T11:17:58;7.78;;;1.48;;
19869;SDS011;10097;50.862;4.696;2022-07-30T11:20:25;4.88;;;1.05;;
19869;SDS011;10097;50.862;4.696;2022-07-30T11:22:51;3.70;;;1.08;;
19869;SDS011;10097;50.862;4.696;2022-07-30T11:27:47;5.10;;;1.25;;
19869;SDS011;10097;50.862;4.696;2022-07-30T11:32:40;4.78;;;1.02;;
19869;SDS011;10097;50.862;4.696;2022-07-30T11:35:17;5.10;;;1.08;;
19869;SDS011;10097;50.862;4.696;2022-07-30T11:40:44;5.90;;;1.40;;
19869;SDS011;10097;50.862;4.696;2022-07-30T11:43:30;3.00;;;1.10;;
19869;SDS011;10097;50.862;4.696;2022-07-30T11:48:56;7.63;;;1.42;;
19869;SDS011;10097;50.862;4.696;2022-07-30T11:51:23;5.53;;;1.02;;
19869;SDS011;10097;50.862;4.696;2022-07-30T11:54:03;5.65;;;1.30;;
19869;SDS011;10097;50.862;4.696;2022-07-30T11:56:31;4.72;;;1.10;;
19869;SDS011;10097;50.862;4.696;2022-07-30T11:59:01;2.92;;;0.98;;
19869;SDS011;10097;50.862;4.696;2022-07-30T12:01:28;2.95;;;1.23;;
19869;SDS011;10097;50.862;4.696;2022-07-30T12:03:55;4.78;;;1.27;;
19869;SDS011;10097;50.862;4.696;2022-07-30T12:06:21;4.20;;;1.65;;
19869;SDS011;10097;50.862;4.696;2022-07-30T12:08:48;5.10;;;1.10;;
19869;SDS011;10097;50.862;4.696;2022-07-30T12:11:15;2.78;;;1.13;;
19869;SDS011;10097;50.862;4.696;2022-07-30T12:13:41;6.85;;;1.10;;
19869;SDS011;10097;50.862;4.696;2022-07-30T12:16:17;4.97;;;1.33;;
19869;SDS011;10097;50.862;4.696;2022-07-30T12:18:43;4.22;;;1.05;;
19869;SDS011;10097;50.862;4.696;2022-07-30T12:21:10;7.60;;;1.35;;
19869;SDS011;10097;50.862;4.696;2022-07-30T12:23:36;4.35;;;1.40;;
19869;SDS011;10097;50.862;4.696;2022-07-30T12:26:03;5.78;;;1.30;;
19869;SDS011;10097;50.862;4.696;2022-07-30T12:28:30;8.25;;;1.50;;
19869;SDS011;10097;50.862;4.696;2022-07-30T12:30:58;2.72;;;1.27;;
19869;SDS011;10097;50.862;4.696;2022-07-30T12:33:26;6.65;;;1.17;;
19869;SDS011;10097;50.862;4.696;2022-07-30T12:35:53;8.35;;;1.42;;
19869;SDS011;10097;50.862;4.696;2022-07-30T12:38:24;5.95;;;1.33;;
19869;SDS011;10097;50.862;4.696;2022-07-30T12:40:58;6.45;;;1.38;;
19869;SDS011;10097;50.862;4.696;2022-07-30T12:46:29;4.68;;;1.23;;
19869;SDS011;10097;50.862;4.696;2022-07-30T12:49:07;6.63;;;1.15;;
19869;SDS011;10097;50.862;4.696;2022-07-30T12:51:48;6.07;;;1.45;;
19869;SDS011;10097;50.862;4.696;2022-07-30T12:54:17;6.35;;;1.73;;
19869;SDS011;10097;50.862;4.696;2022-07-30T12:57:05;5.28;;;1.40;;
19869;SDS011;10097;50.862;4.696;2022-07-30T12:59:30;4.45;;;1.42;;
19869;SDS011;10097;50.862;4.696;2022-07-30T13:01:57;9.52;;;1.80;;
19869;SDS011;10097;50.862;4.696;2022-07-30T13:04:27;6.60;;;1.20;;
19869;SDS011;10097;50.862;4.696;2022-07-30T13:07:06;9.60;;;1.65;;
19869;SDS011;10097;50.862;4.696;2022-07-30T13:09:32;5.80;;;1.23;;
19869;SDS011;10097;50.862;4.696;2022-07-30T13:11:58;4.00;;;1.23;;
19869;SDS011;10097;50.862;4.696;2022-07-30T13:14:24;8.68;;;1.58;;
19869;SDS011;10097;50.862;4.696;2022-07-30T13:16:49;6.85;;;1.52;;
19869;SDS011;10097;50.862;4.696;2022-07-30T13:19:17;5.47;;;1.35;;
19869;SDS011;10097;50.862;4.696;2022-07-30T13:21:43;5.45;;;1.30;;
19869;SDS011;10097;50.862;4.696;2022-07-30T13:24:09;5.85;;;1.50;;
19869;SDS011;10097;50.862;4.696;2022-07-30T13:26:38;4.85;;;1.80;;
19869;SDS011;10097;50.862;4.696;2022-07-30T13:29:06;5.25;;;1.80;;
19869;SDS011;10097;50.862;4.696;2022-07-30T13:31:39;4.57;;;1.48;;
19869;SDS011;10097;50.862;4.696;2022-07-30T13:34:05;4.03;;;1.60;;
19869;SDS011;10097;50.862;4.696;2022-07-30T13:36:34;5.63;;;1.55;;
19869;SDS011;10097;50.862;4.696;2022-07-30T13:39:00;5.25;;;1.55;;
19869;SDS011;10097;50.862;4.696;2022-07-30T13:41:28;4.47;;;1.30;;
19869;SDS011;10097;50.862;4.696;2022-07-30T13:43:54;6.82;;;1.40;;
19869;SDS011;10097;50.862;4.696;2022-07-30T13:46:20;5.93;;;1.60;;
19869;SDS011;10097;50.862;4.696;2022-07-30T13:48:48;10.30;;;1.70;;
19869;SDS011;10097;50.862;4.696;2022-07-30T13:51:16;7.05;;;1.67;;
19869;SDS011;10097;50.862;4.696;2022-07-30T13:53:44;3.70;;;1.38;;
19869;SDS011;10097;50.862;4.696;2022-07-30T13:56:16;4.35;;;1.63;;
19869;SDS011;10097;50.862;4.696;2022-07-30T13:58:41;4.47;;;1.38;;
19869;SDS011;10097;50.862;4.696;2022-07-30T14:01:08;3.28;;;1.58;;
19869;SDS011;10097;50.862;4.696;2022-07-30T14:03:37;5.97;;;1.75;;
19869;SDS011;10097;50.862;4.696;2022-07-30T14:06:02;6.25;;;1.50;;
19869;SDS011;10097;50.862;4.696;2022-07-30T14:08:28;3.15;;;1.20;;
19869;SDS011;10097;50.862;4.696;2022-07-30T14:10:57;7.03;;;1.60;;
19869;SDS011;10097;50.862;4.696;2022-07-30T14:13:23;5.40;;;1.30;;
19869;SDS011;10097;50.862;4.696;2022-07-30T14:15:49;10.27;;;1.63;;
19869;SDS011;10097;50.862;4.696;2022-07-30T14:18:15;7.63;;;1.38;;
19869;SDS011;10097;50.862;4.696;2022-07-30T14:20:41;3.83;;;1.70;;
19869;SDS011;10097;50.862;4.696;2022-07-30T14:23:07;5.38;;;1.30;;
19869;SDS011;10097;50.862;4.696;2022-07-30T14:25:35;5.78;;;1.17;;
19869;SDS011;10097;50.862;4.696;2022-07-30T14:28:03;5.50;;;1.63;;
19869;SDS011;10097;50.862;4.696;2022-07-30T14:30:29;8.60;;;1.60;;
19869;SDS011;10097;50.862;4.696;2022-07-30T14:32:54;6.53;;;1.58;;
19869;SDS011;10097;50.862;4.696;2022-07-30T14:35:20;17.38;;;2.10;;
19869;SDS011;10097;50.862;4.696;2022-07-30T14:37:46;3.60;;;1.20;;
19869;SDS011;10097;50.862;4.696;2022-07-30T14:40:12;5.13;;;1.45;;
19869;SDS011;10097;50.862;4.696;2022-07-30T14:42:40;10.52;;;1.88;;
19869;SDS011;10097;50.862;4.696;2022-07-30T14:45:09;5.00;;;1.13;;
19869;SDS011;10097;50.862;4.696;2022-07-30T14:47:37;5.40;;;1.73;;
19869;SDS011;10097;50.862;4.696;2022-07-30T14:50:04;9.65;;;1.70;;
19869;SDS011;10097;50.862;4.696;2022-07-30T14:52:34;3.63;;;1.20;;
19869;SDS011;10097;50.862;4.696;2022-07-30T14:55:03;6.75;;;1.65;;
19869;SDS011;10097;50.862;4.696;2022-07-30T14:57:33;3.60;;;0.98;;
19869;SDS011;10097;50.862;4.696;2022-07-30T14:59:59;4.18;;;1.33;;
19869;SDS011;10097;50.862;4.696;2022-07-30T15:02:26;5.45;;;1.15;;
19869;SDS011;10097;50.862;4.696;2022-07-30T15:04:52;2.97;;;1.15;;
19869;SDS011;10097;50.862;4.696;2022-07-30T15:07:17;5.32;;;1.40;;
19869;SDS011;10097;50.862;4.696;2022-07-30T15:09:43;3.50;;;1.10;;
19869;SDS011;10097;50.862;4.696;2022-07-30T15:12:09;4.00;;;1.13;;
19869;SDS011;10097;50.862;4.696;2022-07-30T15:14:37;4.65;;;1.05;;
19869;SDS011;10097;50.862;4.696;2022-07-30T15:17:04;3.05;;;0.90;;
19869;SDS011;10097;50.862;4.696;2022-07-30T15:19:30;3.92;;;1.02;;
19869;SDS011;10097;50.862;4.696;2022-07-30T15:21:56;3.28;;;0.93;;
19869;SDS011;10097;50.862;4.696;2022-07-30T15:24:23;5.93;;;1.00;;
19869;SDS011;10097;50.862;4.696;2022-07-30T15:26:49;5.70;;;1.35;;
19869;SDS011;10097;50.862;4.696;2022-07-30T15:29:15;5.35;;;1.10;;